createdAt,value
2017-04-28T06:29:20.409Z,60
2017-04-28T06:30:01.984Z,60
2017-04-28T06:30:43.528Z,60
2017-04-28T06:31:25.645Z,60
2017-04-28T06:32:07.428Z,60
2017-04-28T06:32:49.307Z,60
2017-04-28T06:33:31.191Z,60
2017-04-28T06:34:13.070Z,60
2017-04-28T06:34:54.646Z,60
2017-04-28T06:35:36.219Z,60
2017-04-28T06:36:17.897Z,60
2017-04-28T06:36:59.368Z,60
2017-04-28T06:37:40.902Z,60
2017-04-28T06:38:22.718Z,60
2017-04-28T06:39:04.498Z,60
2017-04-28T06:39:45.956Z,60
2017-04-28T06:40:27.758Z,60
2017-04-28T06:41:09.974Z,60
2017-04-28T06:41:51.501Z,60
2017-04-28T06:42:32.813Z,60
2017-04-28T06:43:14.674Z,60
2017-04-28T06:43:57.557Z,55
2017-04-28T06:44:39.092Z,55
2017-04-28T06:45:21.152Z,55
2017-04-28T06:46:02.991Z,55
2017-04-28T06:46:44.504Z,55
2017-04-28T06:47:26.431Z,55
2017-04-28T06:48:07.900Z,55
2017-04-28T06:48:50.108Z,55
2017-04-28T06:49:31.698Z,55
2017-04-28T06:50:13.528Z,55
2017-04-28T06:50:55.362Z,60
2017-04-28T06:51:37.547Z,60
2017-04-28T06:52:19.163Z,60
2017-04-28T06:53:01.065Z,65
2017-04-28T06:53:42.825Z,65
2017-04-28T06:54:24.566Z,65
2017-04-28T06:55:07.461Z,65
2017-04-28T06:55:49.218Z,65
2017-04-28T06:56:30.505Z,65
2017-04-28T06:57:12.107Z,65
2017-04-28T06:57:53.194Z,65
2017-04-28T06:58:34.138Z,65
2017-04-28T06:59:15.810Z,65
2017-04-28T07:00:02.383Z,65
2017-04-28T07:00:43.677Z,65
2017-04-28T07:01:24.618Z,70
2017-04-28T07:02:06.605Z,70
2017-04-28T07:02:47.457Z,75
2017-04-28T07:03:29.149Z,75
2017-04-28T07:04:10.694Z,80
2017-04-28T07:04:51.837Z,80
2017-04-28T07:05:33.693Z,80
2017-04-28T07:06:15.695Z,80
2017-04-28T07:06:56.842Z,85
2017-04-28T07:07:38.373Z,85
2017-04-28T07:08:20.512Z,85
2017-04-28T07:09:02.126Z,85
2017-04-28T07:09:43.612Z,90
2017-04-28T07:10:25.496Z,90
2017-04-28T07:11:07.662Z,95
2017-04-28T07:11:49.235Z,95
2017-04-28T07:12:30.544Z,100
2017-04-28T07:13:11.897Z,100
2017-04-28T07:13:53.467Z,100
2017-04-28T07:14:35.262Z,105
2017-04-28T07:15:19.181Z,105
2017-04-28T07:16:00.982Z,105
2017-04-28T07:16:43.247Z,105
2017-04-28T07:17:25.179Z,105
2017-04-28T07:18:06.685Z,105
2017-04-28T07:18:48.502Z,105
2017-04-28T07:19:30.520Z,105
2017-04-28T07:20:12.084Z,105
2017-04-28T07:20:53.578Z,105
2017-04-28T07:21:35.522Z,105
2017-04-28T07:22:17.766Z,105
2017-04-28T07:22:59.884Z,105
2017-04-28T07:23:41.400Z,105
2017-04-28T07:24:23.282Z,110
2017-04-28T07:25:05.356Z,110
2017-04-28T07:25:47.349Z,110
2017-04-28T07:26:28.720Z,110
2017-04-28T07:27:10.503Z,115
2017-04-28T07:27:52.281Z,120
2017-04-28T07:28:34.369Z,120
2017-04-28T07:29:15.952Z,125
2017-04-28T07:29:57.411Z,125
2017-04-28T07:30:39.295Z,125
2017-04-28T07:31:21.377Z,120
2017-04-28T07:32:02.864Z,120
2017-04-28T07:32:44.632Z,115
2017-04-28T07:33:26.445Z,110
2017-04-28T07:34:07.227Z,110
2017-04-28T07:34:47.874Z,110
2017-04-28T07:35:28.425Z,115
2017-04-28T07:36:09.150Z,115
2017-04-28T07:36:49.787Z,120
2017-04-28T07:37:30.489Z,120
2017-04-28T07:38:11.212Z,120
2017-04-28T07:38:52.160Z,120
2017-04-28T07:39:32.722Z,125
2017-04-28T07:40:13.396Z,130
2017-04-28T07:40:54.112Z,130
2017-04-28T07:41:34.808Z,135
2017-04-28T07:42:15.510Z,140
2017-04-28T07:42:56.165Z,140
2017-04-28T07:43:36.907Z,145
2017-04-28T07:44:17.523Z,150
2017-04-28T07:44:58.100Z,155
2017-04-28T07:45:38.703Z,160
2017-04-28T07:46:19.348Z,160
2017-04-28T07:46:59.934Z,155
2017-04-28T07:47:40.506Z,150
2017-04-28T07:48:21.081Z,145
2017-04-28T07:49:01.737Z,140
2017-04-28T07:49:42.364Z,135
2017-04-28T07:50:22.985Z,130
2017-04-28T07:51:03.645Z,125
2017-04-28T07:51:44.291Z,125
2017-04-28T07:52:24.945Z,125
2017-04-28T07:53:05.602Z,125
2017-04-28T07:53:46.191Z,130
2017-04-28T07:54:26.800Z,135
2017-04-28T07:55:07.416Z,145
2017-04-28T07:55:48.056Z,150
2017-04-28T07:56:28.714Z,150
2017-04-28T07:57:09.375Z,155
2017-04-28T07:57:50.032Z,160
2017-04-28T07:58:30.666Z,165
2017-04-28T07:59:11.334Z,170
2017-04-28T07:59:51.978Z,175
2017-04-28T08:00:32.652Z,180
2017-04-28T08:01:13.298Z,180
2017-04-28T08:01:53.938Z,185
2017-04-28T08:02:34.599Z,190
2017-04-28T08:03:15.243Z,190
2017-04-28T08:03:55.905Z,195
2017-04-28T08:04:36.551Z,195
2017-04-28T08:05:17.213Z,195
2017-04-28T08:05:57.874Z,200
2017-04-28T08:06:38.509Z,200
2017-04-28T08:07:19.160Z,200
2017-04-28T08:07:59.823Z,205
2017-04-28T08:08:40.474Z,205
2017-04-28T08:09:21.129Z,205
2017-04-28T08:10:01.779Z,205
2017-04-28T08:10:42.418Z,205
2017-04-28T08:11:22.981Z,205
2017-04-28T08:12:03.640Z,205
2017-04-28T08:12:44.276Z,205
2017-04-28T08:13:24.948Z,205
2017-04-28T08:14:05.580Z,205
2017-04-28T08:14:46.231Z,200
2017-04-28T08:15:26.900Z,200
2017-04-28T08:16:08.586Z,195
2017-04-28T08:16:49.215Z,200
2017-04-28T08:17:29.891Z,205
2017-04-28T08:18:10.546Z,215
2017-04-28T08:18:51.174Z,225
2017-04-28T08:19:31.740Z,230
2017-04-28T08:20:12.363Z,235
2017-04-28T08:20:52.927Z,240
2017-04-28T08:21:33.521Z,240
2017-04-28T08:22:14.147Z,245
2017-04-28T08:22:54.827Z,245
2017-04-28T08:23:35.421Z,240
2017-04-28T08:24:17.037Z,240
2017-04-28T08:24:57.671Z,235
2017-04-28T08:25:38.367Z,235
2017-04-28T08:26:18.936Z,230
2017-04-28T08:26:59.529Z,225
2017-04-28T08:27:40.202Z,225
2017-04-28T08:28:20.772Z,220
2017-04-28T08:29:01.341Z,220
2017-04-28T08:29:41.974Z,220
2017-04-28T08:30:22.591Z,215
2017-04-28T08:31:03.248Z,210
2017-04-28T08:31:43.901Z,205
2017-04-28T08:32:24.714Z,205
2017-04-28T08:33:05.303Z,200
2017-04-28T08:33:46.072Z,200
2017-04-28T08:34:26.830Z,195
2017-04-28T08:35:07.587Z,185
2017-04-28T08:35:48.243Z,180
2017-04-28T08:36:28.977Z,170
2017-04-28T08:37:09.663Z,165
2017-04-28T08:37:50.285Z,160
2017-04-28T08:38:31.327Z,150
2017-04-28T08:39:11.991Z,145
2017-04-28T08:39:52.542Z,140
2017-04-28T08:40:33.214Z,135
2017-04-28T08:41:13.857Z,130
2017-04-28T08:41:54.446Z,125
2017-04-28T08:42:35.060Z,125
2017-04-28T08:43:15.719Z,120
2017-04-28T08:43:56.270Z,115
2017-04-28T08:44:36.909Z,115
2017-04-28T08:45:18.594Z,110
2017-04-28T08:45:59.180Z,105
2017-04-28T08:46:39.801Z,100
2017-04-28T08:47:20.478Z,100
2017-04-28T08:48:01.046Z,100
2017-04-28T08:48:41.685Z,105
2017-04-28T08:49:22.309Z,105
2017-04-28T08:50:02.861Z,110
2017-04-28T08:50:43.555Z,110
2017-04-28T08:51:24.176Z,115
2017-04-28T08:52:04.737Z,115
2017-04-28T08:52:45.353Z,115
2017-04-28T08:53:26.020Z,115
2017-04-28T08:54:06.582Z,115
2017-04-28T08:54:47.186Z,115
2017-04-28T08:55:28.831Z,120
2017-04-28T08:56:09.489Z,120
2017-04-28T08:56:50.060Z,125
2017-04-28T08:57:30.645Z,125
2017-04-28T08:58:11.312Z,125
2017-04-28T08:58:52.002Z,125
2017-04-28T08:59:32.544Z,130
2017-04-28T09:00:13.256Z,130
2017-04-28T09:00:53.936Z,130
2017-04-28T09:01:34.611Z,130
2017-04-28T09:02:15.188Z,130
2017-04-28T09:02:55.950Z,130
2017-04-28T09:03:36.615Z,130
2017-04-28T09:04:17.217Z,135
2017-04-28T09:04:57.869Z,135
2017-04-28T09:05:38.521Z,135
2017-04-28T09:06:19.174Z,135
2017-04-28T09:06:59.827Z,135
2017-04-28T09:07:41.504Z,140
2017-04-28T09:08:22.155Z,145
2017-04-28T09:09:02.818Z,150
2017-04-28T09:09:43.463Z,160
2017-04-28T09:10:24.114Z,170
2017-04-28T09:11:04.770Z,180
2017-04-28T09:11:45.420Z,195
2017-04-28T09:12:26.084Z,210
2017-04-28T09:13:06.727Z,220
2017-04-28T09:13:47.383Z,230
2017-04-28T09:14:27.954Z,240
2017-04-28T09:15:08.533Z,240
2017-04-28T09:15:49.132Z,240
2017-04-28T09:16:29.736Z,240
2017-04-28T09:17:10.396Z,240
2017-04-28T09:17:50.962Z,240
2017-04-28T09:18:31.642Z,240
2017-04-28T09:19:12.248Z,240
2017-04-28T09:19:52.826Z,240
2017-04-28T09:20:33.446Z,240
2017-04-28T09:21:14.090Z,240
2017-04-28T09:21:55.674Z,240
2017-04-28T09:22:36.379Z,240
2017-04-28T09:23:17.004Z,240
2017-04-28T09:23:57.635Z,240
2017-04-28T09:24:38.329Z,235
2017-04-28T09:25:18.977Z,230
2017-04-28T09:25:59.592Z,225
2017-04-28T09:26:40.269Z,225
2017-04-28T09:27:20.933Z,225
2017-04-28T09:28:01.567Z,230
2017-04-28T09:28:42.225Z,235
2017-04-28T09:29:22.921Z,240
2017-04-28T09:30:03.555Z,240
2017-04-28T09:30:44.111Z,245
2017-04-28T09:31:24.771Z,245
2017-04-28T09:32:05.491Z,240
2017-04-28T09:32:46.090Z,240
2017-04-28T09:33:26.762Z,235
2017-04-28T09:34:07.425Z,235
2017-04-28T09:34:48.113Z,240
2017-04-28T09:35:28.743Z,240
2017-04-28T09:36:09.429Z,245
2017-04-28T09:36:50.061Z,250
2017-04-28T09:37:30.718Z,255
2017-04-28T09:38:11.365Z,255
2017-04-28T09:38:51.997Z,250
2017-04-28T09:39:32.659Z,250
2017-04-28T09:40:13.314Z,245
2017-04-28T09:40:53.980Z,235
2017-04-28T09:41:34.617Z,235
2017-04-28T09:42:15.260Z,230
2017-04-28T09:42:55.925Z,230
2017-04-28T09:43:36.719Z,235
2017-04-28T09:44:17.334Z,230
2017-04-28T09:44:58.055Z,230
2017-04-28T09:45:38.627Z,225
2017-04-28T09:46:19.279Z,220
2017-04-28T09:46:59.830Z,210
2017-04-28T09:47:40.480Z,205
2017-04-28T09:48:21.149Z,200
2017-04-28T09:49:01.718Z,200
2017-04-28T09:49:42.359Z,200
2017-04-28T09:50:22.991Z,195
2017-04-28T09:51:03.562Z,190
2017-04-28T09:51:44.196Z,180
2017-04-28T09:52:24.857Z,170
2017-04-28T09:53:05.505Z,165
2017-04-28T09:53:46.079Z,155
2017-04-28T09:54:26.712Z,150
2017-04-28T09:55:07.367Z,145
2017-04-28T09:55:48.020Z,145
2017-04-28T09:56:28.669Z,140
2017-04-28T09:57:09.322Z,135
2017-04-28T09:57:49.976Z,130
2017-04-28T09:58:30.621Z,125
2017-04-28T09:59:11.297Z,130
2017-04-28T09:59:51.871Z,130
2017-04-28T10:00:32.434Z,135
2017-04-28T10:01:13.066Z,135
2017-04-28T10:01:53.824Z,135
2017-04-28T10:02:34.484Z,140
2017-04-28T10:03:15.048Z,140
2017-04-28T10:03:55.661Z,140
2017-04-28T10:04:36.297Z,140
2017-04-28T10:05:16.995Z,140
2017-04-28T10:05:57.573Z,140
2017-04-28T10:06:38.156Z,135
2017-04-28T10:07:18.813Z,135
2017-04-28T10:07:59.399Z,130
2017-04-28T10:08:40.012Z,130
2017-04-28T10:09:20.657Z,135
2017-04-28T10:10:01.328Z,130
2017-04-28T10:10:41.906Z,130
2017-04-28T10:11:22.491Z,135
2017-04-28T10:12:03.161Z,130
2017-04-28T10:12:43.827Z,130
2017-04-28T10:13:24.416Z,130
2017-04-28T10:14:04.966Z,130
2017-04-28T10:14:45.568Z,130
2017-04-28T10:15:26.228Z,125
2017-04-28T10:16:06.828Z,125
2017-04-28T10:16:47.433Z,130
2017-04-28T10:17:28.103Z,130
2017-04-28T10:18:08.757Z,130
2017-04-28T10:18:50.358Z,130
2017-04-28T10:19:30.912Z,130
2017-04-28T10:20:11.560Z,135
2017-04-28T10:20:52.117Z,135
2017-04-28T10:21:32.761Z,135
2017-04-28T10:22:13.355Z,135
2017-04-28T10:22:54.099Z,135
2017-04-28T10:23:34.773Z,140
2017-04-28T10:24:15.388Z,145
2017-04-28T10:24:55.955Z,150
2017-04-28T10:25:36.560Z,155
2017-04-28T10:26:17.185Z,155
2017-04-28T10:26:57.877Z,150
2017-04-28T10:27:38.500Z,150
2017-04-28T10:28:19.202Z,150
2017-04-28T10:28:59.854Z,145
2017-04-28T10:29:40.546Z,140
2017-04-28T10:30:21.219Z,140
2017-04-28T10:31:01.879Z,135
2017-04-28T10:31:42.505Z,130
2017-04-28T10:32:23.178Z,130
2017-04-28T10:33:03.811Z,130
2017-04-28T10:33:44.462Z,130
2017-04-28T10:34:25.115Z,125
2017-04-28T10:35:05.751Z,125
2017-04-28T10:35:46.614Z,125
2017-04-28T10:36:27.570Z,125
2017-04-28T10:37:08.315Z,130
2017-04-28T10:37:48.958Z,125
2017-04-28T10:38:29.699Z,125
2017-04-28T10:39:10.550Z,125
2017-04-28T10:39:51.325Z,120
2017-04-28T10:40:32.309Z,120
2017-04-28T10:41:12.891Z,115
2017-04-28T10:41:53.557Z,115
2017-04-28T10:42:34.218Z,110
2017-04-28T10:43:14.945Z,110
2017-04-28T10:43:55.509Z,110
2017-04-28T10:44:36.239Z,110
2017-04-28T10:45:16.950Z,110
2017-04-28T10:45:57.698Z,110
2017-04-28T10:46:38.370Z,110
2017-04-28T10:47:19.159Z,110
2017-04-28T10:47:59.936Z,110
2017-04-28T10:48:40.695Z,110
2017-04-28T10:49:21.425Z,110
2017-04-28T10:50:02.165Z,115
2017-04-28T10:50:42.786Z,115
2017-04-28T10:51:23.489Z,120
2017-04-28T10:52:04.249Z,125
2017-04-28T10:52:45.016Z,125
2017-04-28T10:53:25.698Z,135
2017-04-28T10:54:06.406Z,135
2017-04-28T10:54:47.183Z,140
2017-04-28T10:55:27.866Z,145
2017-04-28T10:56:08.589Z,145
2017-04-28T10:56:49.327Z,145
2017-04-28T10:57:30.099Z,145
2017-04-28T10:58:10.834Z,150
2017-04-28T10:58:51.419Z,150
2017-04-28T10:59:32.143Z,150
2017-04-28T11:00:12.889Z,150
2017-04-28T11:00:53.645Z,145
2017-04-28T11:01:34.392Z,145
2017-04-28T11:02:15.132Z,145
2017-04-28T11:02:55.720Z,155
2017-04-28T11:03:36.424Z,165
2017-04-28T11:04:17.201Z,170
2017-04-28T11:04:57.858Z,175
2017-04-28T11:05:38.546Z,175
2017-04-28T11:06:19.100Z,185
2017-04-28T11:06:59.808Z,200
2017-04-28T11:07:40.468Z,205
2017-04-28T11:08:21.184Z,205
2017-04-28T11:09:01.756Z,215
2017-04-28T11:09:42.417Z,220
2017-04-28T11:10:23.078Z,230
2017-04-28T11:11:04.232Z,235
2017-04-28T11:11:45.023Z,240
2017-04-28T11:12:25.751Z,240
2017-04-28T11:13:06.504Z,240
2017-04-28T11:13:47.156Z,240
2017-04-28T11:14:27.872Z,245
2017-04-28T11:15:08.726Z,240
2017-04-28T11:15:49.444Z,225
2017-04-28T11:16:30.285Z,220
2017-04-28T11:17:10.963Z,220
2017-04-28T11:17:51.730Z,225
2017-04-28T11:18:32.451Z,220
2017-04-28T11:19:13.013Z,220
2017-04-28T11:19:53.760Z,220
2017-04-28T11:20:34.706Z,215
2017-04-28T11:21:15.464Z,215
2017-04-28T11:21:56.123Z,230
2017-04-28T11:22:36.891Z,245
2017-04-28T11:23:17.629Z,255
2017-04-28T11:23:58.536Z,265
2017-04-28T11:24:39.362Z,265
2017-04-28T11:25:20.103Z,265
2017-04-28T11:26:00.868Z,270
2017-04-28T11:26:41.731Z,260
2017-04-28T11:27:22.498Z,255
2017-04-28T11:28:03.327Z,255
2017-04-28T11:28:44.078Z,250
2017-04-28T11:29:24.882Z,245
2017-04-28T11:30:05.647Z,240
2017-04-28T11:30:46.372Z,240
2017-04-28T11:31:27.198Z,240
2017-04-28T11:32:07.954Z,240
2017-04-28T11:32:48.917Z,250
2017-04-28T11:33:32.488Z,245
2017-04-28T11:34:13.083Z,250
2017-04-28T11:34:53.861Z,255
2017-04-28T11:35:34.682Z,260
2017-04-28T11:36:15.581Z,260
2017-04-28T11:36:56.601Z,260
2017-04-28T11:37:37.298Z,260
2017-04-28T11:38:18.074Z,255
2017-04-28T11:38:58.807Z,245
2017-04-28T11:39:39.557Z,235
2017-04-28T11:40:20.338Z,225
2017-04-28T11:41:01.055Z,215
2017-04-28T11:41:41.855Z,215
2017-04-28T11:42:22.568Z,215
2017-04-28T11:43:03.234Z,210
2017-04-28T11:43:43.990Z,205
2017-04-28T11:44:24.733Z,200
2017-04-28T11:45:05.319Z,200
2017-04-28T11:45:45.976Z,195
2017-04-28T11:46:26.910Z,200
2017-04-28T11:47:07.665Z,205
2017-04-28T11:47:48.393Z,200
2017-04-28T11:48:28.990Z,200
2017-04-28T11:49:09.553Z,200
2017-04-28T11:49:50.165Z,190
2017-04-28T11:50:30.814Z,185
2017-04-28T11:51:11.603Z,180
2017-04-28T11:51:52.159Z,175
2017-04-28T11:52:32.754Z,175
2017-04-28T11:53:13.433Z,180
2017-04-28T11:53:54.000Z,185
2017-04-28T11:54:34.576Z,185
2017-04-28T11:55:15.216Z,185
2017-04-28T11:55:55.925Z,175
2017-04-28T11:56:36.602Z,170
2017-04-28T11:57:17.204Z,165
2017-04-28T11:57:57.893Z,165
2017-04-28T11:58:38.579Z,160
2017-04-28T11:59:19.221Z,160
2017-04-28T11:59:59.816Z,160
2017-04-28T12:00:40.492Z,165
2017-04-28T12:01:21.145Z,180
2017-04-28T12:02:01.803Z,170
2017-04-28T12:02:42.440Z,165
2017-04-28T12:03:23.089Z,165
2017-04-28T12:04:03.751Z,165
2017-04-28T12:04:44.383Z,160
2017-04-28T12:05:24.988Z,160
2017-04-28T12:06:05.564Z,165
2017-04-28T12:06:46.163Z,170
2017-04-28T12:07:26.806Z,175
2017-04-28T12:08:07.400Z,175
2017-04-28T12:08:47.957Z,170
2017-04-28T12:09:28.574Z,175
2017-04-28T12:10:09.213Z,170
2017-04-28T12:10:49.806Z,175
2017-04-28T12:11:30.388Z,175
2017-04-28T12:12:10.998Z,175
2017-04-28T12:12:51.618Z,170
2017-04-28T12:13:32.313Z,175
2017-04-28T12:14:12.867Z,180
2017-04-28T12:14:53.465Z,190
2017-04-28T12:15:34.137Z,195
2017-04-28T12:16:14.723Z,195
2017-04-28T12:16:55.285Z,190
2017-04-28T12:17:35.905Z,190
2017-04-28T12:18:16.549Z,185
2017-04-28T12:18:57.228Z,185
2017-04-28T12:19:37.781Z,180
2017-04-28T12:20:18.405Z,180
2017-04-28T12:20:59.051Z,180
2017-04-28T12:21:39.701Z,175
2017-04-28T12:22:20.361Z,175
2017-04-28T12:23:01.130Z,175
2017-04-28T12:23:41.842Z,170
2017-04-28T12:24:23.439Z,170
2017-04-28T12:25:04.115Z,170
2017-04-28T12:25:44.748Z,170
2017-04-28T12:26:25.315Z,170
2017-04-28T12:27:05.965Z,175
2017-04-28T12:27:46.605Z,175
2017-04-28T12:28:27.600Z,170
2017-04-28T12:29:08.182Z,170
2017-04-28T12:29:48.859Z,175
2017-04-28T12:30:29.433Z,175
2017-04-28T12:31:10.070Z,180
2017-04-28T12:31:50.726Z,185
2017-04-28T12:32:31.377Z,185
2017-04-28T12:33:12.031Z,190
2017-04-28T12:33:52.694Z,195
2017-04-28T12:34:33.349Z,195
2017-04-28T12:35:14.013Z,200
2017-04-28T12:35:54.655Z,200
2017-04-28T12:36:35.216Z,200
2017-04-28T12:37:15.875Z,205
2017-04-28T12:37:56.604Z,215
2017-04-28T12:38:37.192Z,225
2017-04-28T12:39:17.808Z,230
2017-04-28T12:39:58.459Z,235
2017-04-28T12:40:39.116Z,240
2017-04-28T12:41:19.804Z,245
2017-04-28T12:42:00.420Z,245
2017-04-28T12:42:41.098Z,250
2017-04-28T12:43:21.726Z,255
2017-04-28T12:44:02.380Z,250
2017-04-28T12:44:43.029Z,250
2017-04-28T12:45:23.624Z,255
2017-04-28T12:46:04.218Z,240
2017-04-28T12:46:45.812Z,235
2017-04-28T12:47:26.540Z,230
2017-04-28T12:48:07.158Z,225
2017-04-28T12:48:47.730Z,225
2017-04-28T12:49:28.342Z,225
2017-04-28T12:50:08.965Z,225
2017-04-28T12:50:49.523Z,225
2017-04-28T12:51:30.184Z,220
2017-04-28T12:52:10.831Z,220
2017-04-28T12:52:51.411Z,215
2017-04-28T12:53:32.048Z,215
2017-04-28T12:54:12.692Z,210
2017-04-28T12:54:53.254Z,200
2017-04-28T12:55:33.891Z,195
2017-04-28T12:56:14.559Z,195
2017-04-28T12:56:55.184Z,195
2017-04-28T12:57:35.848Z,190
2017-04-28T12:58:16.509Z,180
2017-04-28T12:58:57.159Z,175
2017-04-28T12:59:37.813Z,175
2017-04-28T13:00:18.526Z,175
2017-04-28T13:00:59.100Z,180
2017-04-28T13:01:39.726Z,180
2017-04-28T13:02:20.414Z,185
2017-04-28T13:03:01.001Z,185
2017-04-28T13:03:41.591Z,180
2017-04-28T13:04:22.259Z,180
2017-04-28T13:05:02.915Z,180
2017-04-28T13:05:43.577Z,180
2017-04-28T13:06:24.252Z,185
2017-04-28T13:07:04.878Z,190
2017-04-28T13:07:45.535Z,195
2017-04-28T13:08:26.188Z,200
2017-04-28T13:09:06.831Z,210
2017-04-28T13:09:47.498Z,205
2017-04-28T13:10:28.142Z,205
2017-04-28T13:11:08.790Z,205
2017-04-28T13:11:49.384Z,200
2017-04-28T13:12:30.029Z,200
2017-04-28T13:13:10.651Z,195
2017-04-28T13:13:51.303Z,195
2017-04-28T13:14:31.961Z,195
2017-04-28T13:15:12.554Z,190
2017-04-28T13:15:53.106Z,190
2017-04-28T13:16:33.703Z,190
2017-04-28T13:17:14.371Z,185
2017-04-28T13:17:55.062Z,185
2017-04-28T13:18:35.629Z,185
2017-04-28T13:19:16.216Z,185
2017-04-28T13:19:56.862Z,180
2017-04-28T13:20:37.536Z,180
2017-04-28T13:21:18.107Z,180
2017-04-28T13:21:58.695Z,180
2017-04-28T13:22:39.350Z,190
2017-04-28T13:23:20.044Z,195
2017-04-28T13:24:00.606Z,190
2017-04-28T13:24:41.323Z,195
2017-04-28T13:25:21.950Z,185
2017-04-28T13:26:02.617Z,185
2017-04-28T13:26:43.268Z,180
2017-04-28T13:27:23.921Z,180
2017-04-28T13:28:04.573Z,180
2017-04-28T13:28:46.994Z,175
2017-04-28T13:29:27.620Z,175
2017-04-28T13:30:08.267Z,175
2017-04-28T13:30:48.857Z,175
2017-04-28T13:31:29.633Z,175
2017-04-28T13:32:10.256Z,165
2017-04-28T13:32:50.808Z,160
2017-04-28T13:33:31.438Z,155
2017-04-28T13:34:12.090Z,155
2017-04-28T13:34:52.666Z,150
2017-04-28T13:35:33.350Z,150
2017-04-28T13:36:13.955Z,150
2017-04-28T13:36:54.531Z,145
2017-04-28T13:37:35.110Z,145
2017-04-28T13:38:15.833Z,140
2017-04-28T13:38:56.451Z,135
2017-04-28T13:39:37.044Z,130
2017-04-28T13:40:17.612Z,135
2017-04-28T13:40:58.211Z,135
2017-04-28T13:41:38.881Z,135
2017-04-28T13:42:19.549Z,135
2017-04-28T13:43:00.167Z,140
2017-04-28T13:43:40.909Z,140
2017-04-28T13:44:21.573Z,145
2017-04-28T13:45:02.240Z,150
2017-04-28T13:45:42.884Z,155
2017-04-28T13:46:23.531Z,160
2017-04-28T13:47:04.198Z,165
2017-04-28T13:47:44.840Z,170
2017-04-28T13:48:25.413Z,175
2017-04-28T13:49:06.138Z,175
2017-04-28T13:49:46.751Z,180
2017-04-28T13:50:27.386Z,175
2017-04-28T13:51:08.000Z,170
2017-04-28T13:51:48.678Z,165
2017-04-28T13:52:29.321Z,165
2017-04-28T13:53:10.033Z,160
2017-04-28T13:53:50.609Z,155
2017-04-28T13:54:31.278Z,155
2017-04-28T13:55:12.428Z,160
2017-04-28T13:55:53.021Z,165
2017-04-28T13:56:33.642Z,175
2017-04-28T13:57:14.308Z,180
2017-04-28T13:57:54.948Z,180
2017-04-28T13:58:35.712Z,185
2017-04-28T13:59:16.352Z,190
2017-04-28T13:59:57.006Z,190
2017-04-28T14:00:37.580Z,190
2017-04-28T14:01:18.209Z,190
2017-04-28T14:01:58.914Z,185
2017-04-28T14:02:39.482Z,185
2017-04-28T14:03:20.057Z,190
2017-04-28T14:04:00.713Z,190
2017-04-28T14:04:41.298Z,190
2017-04-28T14:05:21.916Z,190
2017-04-28T14:06:02.583Z,190
2017-04-28T14:06:43.294Z,190
2017-04-28T14:07:23.843Z,185
2017-04-28T14:08:04.528Z,185
2017-04-28T14:08:45.187Z,185
2017-04-28T14:09:25.789Z,185
2017-04-28T14:10:06.353Z,185
2017-04-28T14:10:47.989Z,180
2017-04-28T14:11:28.538Z,180
2017-04-28T14:12:09.175Z,170
2017-04-28T14:12:49.736Z,165
2017-04-28T14:13:30.343Z,160
2017-04-28T14:14:11.027Z,155
2017-04-28T14:14:51.665Z,150
2017-04-28T14:15:32.247Z,150
2017-04-28T14:16:12.960Z,145
2017-04-28T14:16:53.668Z,145
2017-04-28T14:17:34.296Z,140
2017-04-28T14:18:14.947Z,130
2017-04-28T14:18:55.601Z,125
2017-04-28T14:19:36.244Z,120
2017-04-28T14:20:16.921Z,115
2017-04-28T14:20:57.569Z,115
2017-04-28T14:21:38.250Z,120
2017-04-28T14:22:18.824Z,125
2017-04-28T14:22:59.407Z,130
2017-04-28T14:23:40.073Z,135
2017-04-28T14:24:20.658Z,135
2017-04-28T14:25:01.212Z,140
2017-04-28T14:25:41.810Z,140
2017-04-28T14:26:23.496Z,140
2017-04-28T14:27:04.142Z,145
2017-04-28T14:27:44.789Z,145
2017-04-28T14:28:25.458Z,150
2017-04-28T14:29:06.101Z,150
2017-04-28T14:29:46.765Z,150
2017-04-28T14:30:27.402Z,150
2017-04-28T14:31:08.075Z,150
2017-04-28T14:31:48.964Z,150
2017-04-28T14:32:29.545Z,145
2017-04-28T14:33:10.219Z,145
2017-04-28T14:33:50.789Z,140
2017-04-28T14:34:31.437Z,140
2017-04-28T14:35:12.090Z,140
2017-04-28T14:35:52.731Z,140
2017-04-28T14:36:33.326Z,145
2017-04-28T14:37:13.927Z,145
2017-04-28T14:37:54.576Z,150
2017-04-28T14:38:35.183Z,150
2017-04-28T14:39:15.907Z,155
2017-04-28T14:39:56.564Z,155
2017-04-28T14:40:37.235Z,155
2017-04-28T14:41:17.813Z,160
2017-04-28T14:41:58.401Z,160
2017-04-28T14:42:38.941Z,165
2017-04-28T14:43:19.546Z,165
2017-04-28T14:44:00.128Z,170
2017-04-28T14:44:40.840Z,170
2017-04-28T14:45:21.437Z,175
2017-04-28T14:46:02.161Z,175
2017-04-28T14:46:42.760Z,180
2017-04-28T14:47:23.461Z,180
2017-04-28T14:48:04.064Z,180
2017-04-28T14:48:44.677Z,180
2017-04-28T14:49:25.270Z,185
2017-04-28T14:50:06.565Z,185
2017-04-28T14:50:47.181Z,180
2017-04-28T14:51:27.841Z,180
2017-04-28T14:52:08.520Z,175
2017-04-28T14:52:50.174Z,170
2017-04-28T14:53:30.777Z,165
2017-04-28T14:54:11.416Z,165
2017-04-28T14:54:52.049Z,165
2017-04-28T14:55:32.608Z,165
2017-04-28T14:56:13.179Z,165
2017-04-28T14:56:53.824Z,165
2017-04-28T14:57:34.484Z,165
2017-04-28T14:58:20.150Z,165
2017-04-28T14:59:00.697Z,165
2017-04-28T14:59:42.273Z,165
2017-04-28T15:00:22.988Z,155
2017-04-28T15:01:03.556Z,155
2017-04-28T15:01:44.143Z,155
2017-04-28T15:02:24.851Z,155
2017-04-28T15:03:05.417Z,155
2017-04-28T15:03:48.040Z,155
2017-04-28T15:04:28.615Z,155
2017-04-28T15:05:09.173Z,155
2017-04-28T15:05:54.300Z,155
2017-04-28T15:06:34.999Z,155
2017-04-28T15:07:15.672Z,150
2017-04-28T15:07:56.278Z,150
2017-04-28T15:08:36.845Z,150
2017-04-28T15:09:22.768Z,150
2017-04-28T15:10:03.330Z,150
2017-04-28T15:10:45.599Z,150
2017-04-28T15:11:26.463Z,150
2017-04-28T15:12:07.106Z,150
2017-04-28T15:12:47.751Z,150
2017-04-28T15:13:28.401Z,145
2017-04-28T15:14:09.101Z,145
2017-04-28T15:14:49.778Z,140
2017-04-28T15:15:30.468Z,140
2017-04-28T15:16:11.134Z,135
2017-04-28T15:16:51.879Z,125
2017-04-28T15:17:32.630Z,115
2017-04-28T15:18:13.287Z,110
2017-04-28T15:18:53.936Z,100
2017-04-28T15:19:34.690Z,95
2017-04-28T15:20:15.350Z,90
2017-04-28T15:20:56.001Z,85
2017-04-28T15:21:37.680Z,80
2017-04-28T15:22:18.544Z,80
2017-04-28T15:22:59.188Z,80
2017-04-28T15:23:40.655Z,85
2017-04-28T15:24:21.345Z,90
2017-04-28T15:25:01.987Z,90
2017-04-28T15:25:42.726Z,85
2017-04-28T15:26:23.333Z,85
2017-04-28T15:27:03.985Z,85
2017-04-28T15:27:44.659Z,85
2017-04-28T15:28:25.497Z,80
2017-04-28T15:29:06.144Z,75
2017-04-28T15:29:46.803Z,70
2017-04-28T15:30:27.509Z,65
2017-04-28T15:31:08.105Z,60
2017-04-28T15:31:48.863Z,60
2017-04-28T15:32:29.648Z,60
2017-04-28T15:33:10.270Z,60
2017-04-28T15:33:51.016Z,60
2017-04-28T15:34:31.873Z,60
2017-04-28T15:35:12.540Z,60
2017-04-28T15:35:53.202Z,60
2017-04-28T15:36:33.943Z,55
2017-04-28T15:37:14.631Z,50
2017-04-28T15:37:55.254Z,45
2017-04-28T15:38:40.460Z,40
2017-04-28T15:39:21.161Z,35
2017-04-28T15:40:02.226Z,35
2017-04-28T15:40:42.894Z,30
2017-04-28T15:41:23.543Z,30
2017-04-28T15:42:04.138Z,25
2017-04-28T15:42:44.781Z,25
2017-04-28T15:43:25.503Z,25
2017-04-28T15:44:06.193Z,20
2017-04-28T15:44:48.464Z,20
2017-04-28T15:45:29.117Z,20
2017-04-28T15:46:10.169Z,20
2017-04-28T15:46:50.822Z,20
2017-04-28T15:47:32.523Z,15
2017-04-28T15:48:13.166Z,15
2017-04-28T15:48:53.920Z,15
2017-04-28T15:49:34.565Z,15
2017-04-28T15:50:15.217Z,15
2017-04-28T15:50:55.799Z,15
2017-04-28T15:51:36.496Z,10
2017-04-28T15:52:17.435Z,10
2017-04-28T15:52:58.031Z,10
2017-04-28T15:53:38.716Z,10